sensor_id;sensor_type;location;lat;lon;timestamp;pressure;altitude;pressure_sealevel;temperature;humidity
55604;BME280;41468;48.838;9.330;2023-07-29T00:02:19;97888.66;;;17.94;100.00
55604;BME280;41468;48.838;9.330;2023-07-29T00:04:45;97902.72;;;17.99;100.00
55604;BME280;41468;48.838;9.330;2023-07-29T00:07:12;97893.41;;;17.93;100.00
55604;BME280;41468;48.838;9.330;2023-07-29T00:09:39;97891.00;;;17.95;100.00
55604;BME280;41468;48.838;9.330;2023-07-29T00:12:06;97891.31;;;17.97;100.00
55604;BME280;41468;48.838;9.330;2023-07-29T00:14:33;97890.28;;;17.91;100.00
55604;BME280;41468;48.838;9.330;2023-07-29T00:16:59;97883.63;;;17.88;100.00
55604;BME280;41468;48.838;9.330;2023-07-29T00:19:26;97889.91;;;17.89;100.00
55604;BME280;41468;48.838;9.330;2023-07-29T00:21:55;97878.88;;;17.89;100.00
55604;BME280;41468;48.838;9.330;2023-07-29T00:24:21;97871.66;;;17.95;100.00
55604;BME280;41468;48.838;9.330;2023-07-29T00:26:48;97878.03;;;17.92;100.00
55604;BME280;41468;48.838;9.330;2023-07-29T00:29:15;97866.19;;;17.92;100.00
55604;BME280;41468;48.838;9.330;2023-07-29T00:31:42;97870.44;;;17.96;100.00
55604;BME280;41468;48.838;9.330;2023-07-29T00:34:08;97861.25;;;18.03;100.00
55604;BME280;41468;48.838;9.330;2023-07-29T00:36:35;97873.06;;;18.03;100.00
55604;BME280;41468;48.838;9.330;2023-07-29T00:39:03;97867.69;;;17.96;100.00
55604;BME280;41468;48.838;9.330;2023-07-29T00:41:29;97870.59;;;17.89;100.00
55604;BME280;41468;48.838;9.330;2023-07-29T00:43:56;97873.72;;;17.91;100.00
55604;BME280;41468;48.838;9.330;2023-07-29T00:46:28;97871.38;;;17.90;100.00
55604;BME280;41468;48.838;9.330;2023-07-29T00:48:58;97870.94;;;17.91;100.00
55604;BME280;41468;48.838;9.330;2023-07-29T00:51:25;97861.63;;;17.85;100.00
55604;BME280;41468;48.838;9.330;2023-07-29T00:53:52;97856.78;;;17.89;100.00
55604;BME280;41468;48.838;9.330;2023-07-29T00:56:18;97863.16;;;17.86;100.00
55604;BME280;41468;48.838;9.330;2023-07-29T00:58:46;97859.22;;;17.87;100.00
55604;BME280;41468;48.838;9.330;2023-07-29T01:01:12;97868.28;;;17.87;100.00
55604;BME280;41468;48.838;9.330;2023-07-29T01:03:39;97870.66;;;17.85;100.00
55604;BME280;41468;48.838;9.330;2023-07-29T01:06:13;97866.38;;;17.84;100.00
55604;BME280;41468;48.838;9.330;2023-07-29T01:09:01;97853.69;;;17.87;100.00
55604;BME280;41468;48.838;9.330;2023-07-29T01:14:18;97862.88;;;17.80;100.00
55604;BME280;41468;48.838;9.330;2023-07-29T01:16:52;97857.06;;;17.75;100.00
55604;BME280;41468;48.838;9.330;2023-07-29T01:19:38;97847.66;;;17.72;100.00
55604;BME280;41468;48.838;9.330;2023-07-29T01:22:11;97846.88;;;17.72;100.00
55604;BME280;41468;48.838;9.330;2023-07-29T01:24:39;97838.94;;;17.74;100.00
55604;BME280;41468;48.838;9.330;2023-07-29T01:27:06;97838.22;;;17.70;100.00
55604;BME280;41468;48.838;9.330;2023-07-29T01:29:32;97841.44;;;17.68;100.00
55604;BME280;41468;48.838;9.330;2023-07-29T01:32:28;97843.41;;;17.67;100.00
55604;BME280;41468;48.838;9.330;2023-07-29T01:35:00;97843.41;;;17.67;100.00
55604;BME280;41468;48.838;9.330;2023-07-29T01:37:32;97845.34;;;17.71;100.00
55604;BME280;41468;48.838;9.330;2023-07-29T01:40:01;97843.06;;;17.65;100.00
55604;BME280;41468;48.838;9.330;2023-07-29T01:42:29;97842.63;;;17.67;100.00
55604;BME280;41468;48.838;9.330;2023-07-29T01:44:56;97842.34;;;17.61;100.00
55604;BME280;41468;48.838;9.330;2023-07-29T01:47:23;97842.97;;;17.69;100.00
55604;BME280;41468;48.838;9.330;2023-07-29T01:49:50;97840.63;;;17.67;100.00
55604;BME280;41468;48.838;9.330;2023-07-29T01:52:17;97832.97;;;17.75;100.00
55604;BME280;41468;48.838;9.330;2023-07-29T01:54:44;97836.81;;;17.61;100.00
55604;BME280;41468;48.838;9.330;2023-07-29T01:57:10;97840.34;;;17.62;100.00
55604;BME280;41468;48.838;9.330;2023-07-29T01:59:37;97839.72;;;17.54;100.00
55604;BME280;41468;48.838;9.330;2023-07-29T02:02:04;97841.03;;;17.50;100.00
55604;BME280;41468;48.838;9.330;2023-07-29T02:04:31;97829.97;;;17.50;100.00
55604;BME280;41468;48.838;9.330;2023-07-29T02:06:58;97829.91;;;17.53;100.00
55604;BME280;41468;48.838;9.330;2023-07-29T02:09:25;97829.22;;;17.49;100.00
55604;BME280;41468;48.838;9.330;2023-07-29T02:11:52;97832.31;;;17.51;100.00
55604;BME280;41468;48.838;9.330;2023-07-29T02:14:19;97823.88;;;17.58;100.00
55604;BME280;41468;48.838;9.330;2023-07-29T02:16:45;97820.41;;;17.54;100.00
55604;BME280;41468;48.838;9.330;2023-07-29T02:19:12;97823.38;;;17.63;100.00
55604;BME280;41468;48.838;9.330;2023-07-29T02:21:39;97816.91;;;17.70;100.00
55604;BME280;41468;48.838;9.330;2023-07-29T02:24:06;97824.59;;;17.62;100.00
55604;BME280;41468;48.838;9.330;2023-07-29T02:26:33;97822.25;;;17.61;100.00
55604;BME280;41468;48.838;9.330;2023-07-29T02:29:00;97826.56;;;17.62;100.00
55604;BME280;41468;48.838;9.330;2023-07-29T02:31:27;97825.28;;;17.66;100.00
55604;BME280;41468;48.838;9.330;2023-07-29T02:33:53;97817.63;;;17.74;100.00
55604;BME280;41468;48.838;9.330;2023-07-29T02:36:20;97809.94;;;17.65;100.00
55604;BME280;41468;48.838;9.330;2023-07-29T02:49:16;97805.59;;;17.64;100.00
55604;BME280;41468;48.838;9.330;2023-07-29T02:51:43;97802.50;;;17.62;100.00
55604;BME280;41468;48.838;9.330;2023-07-29T02:54:10;97790.66;;;17.62;100.00
55604;BME280;41468;48.838;9.330;2023-07-29T02:56:37;97792.31;;;17.59;100.00
55604;BME280;41468;48.838;9.330;2023-07-29T02:59:04;97790.25;;;17.63;100.00
55604;BME280;41468;48.838;9.330;2023-07-29T03:01:31;97795.78;;;17.63;100.00
55604;BME280;41468;48.838;9.330;2023-07-29T03:03:58;97798.91;;;17.65;100.00
55604;BME280;41468;48.838;9.330;2023-07-29T03:06:25;97798.94;;;17.62;100.00
55604;BME280;41468;48.838;9.330;2023-07-29T03:08:52;97790.16;;;17.67;100.00
55604;BME280;41468;48.838;9.330;2023-07-29T03:11:19;97790.94;;;17.67;100.00
55604;BME280;41468;48.838;9.330;2023-07-29T03:13:45;97778.00;;;17.64;100.00
55604;BME280;41468;48.838;9.330;2023-07-29T03:16:17;97783.25;;;17.59;100.00
55604;BME280;41468;48.838;9.330;2023-07-29T03:18:44;97776.81;;;17.65;100.00
55604;BME280;41468;48.838;9.330;2023-07-29T03:21:11;97773.69;;;17.63;100.00
55604;BME280;41468;48.838;9.330;2023-07-29T03:23:38;97765.91;;;17.58;100.00
55604;BME280;41468;48.838;9.330;2023-07-29T03:26:05;97776.69;;;17.53;100.00
55604;BME280;41468;48.838;9.330;2023-07-29T03:28:42;97771.56;;;17.51;100.00
55604;BME280;41468;48.838;9.330;2023-07-29T03:31:09;97769.19;;;17.53;100.00
55604;BME280;41468;48.838;9.330;2023-07-29T03:33:37;97775.56;;;17.50;100.00
55604;BME280;41468;48.838;9.330;2023-07-29T03:36:04;97765.66;;;17.53;100.00
55604;BME280;41468;48.838;9.330;2023-07-29T03:38:31;97770.03;;;17.50;100.00
55604;BME280;41468;48.838;9.330;2023-07-29T03:40:59;97775.56;;;17.50;100.00
55604;BME280;41468;48.838;9.330;2023-07-29T03:43:26;97782.06;;;17.40;100.00
55604;BME280;41468;48.838;9.330;2023-07-29T03:45:53;97776.56;;;17.40;100.00
55604;BME280;41468;48.838;9.330;2023-07-29T03:48:20;97768.63;;;17.42;100.00
55604;BME280;41468;48.838;9.330;2023-07-29T03:50:46;97776.41;;;17.47;100.00
55604;BME280;41468;48.838;9.330;2023-07-29T03:53:13;97776.41;;;17.47;100.00
55604;BME280;41468;48.838;9.330;2023-07-29T03:55:40;97772.38;;;17.52;100.00
55604;BME280;41468;48.838;9.330;2023-07-29T03:58:07;97769.03;;;17.60;100.00
55604;BME280;41468;48.838;9.330;2023-07-29T04:00:33;97772.22;;;17.59;100.00
55604;BME280;41468;48.838;9.330;2023-07-29T04:03:00;97765.91;;;17.58;100.00
55604;BME280;41468;48.838;9.330;2023-07-29T04:05:27;97768.69;;;17.58;100.00
55604;BME280;41468;48.838;9.330;2023-07-29T04:07:54;97774.81;;;17.66;100.00
55604;BME280;41468;48.838;9.330;2023-07-29T04:10:21;97778.44;;;17.63;100.00
55604;BME280;41468;48.838;9.330;2023-07-29T04:12:47;97794.06;;;17.70;100.00
55604;BME280;41468;48.838;9.330;2023-07-29T04:15:14;97794.56;;;17.64;100.00
55604;BME280;41468;48.838;9.330;2023-07-29T04:17:41;97783.97;;;17.63;100.00
55604;BME280;41468;48.838;9.330;2023-07-29T04:20:09;97781.00;;;17.54;100.00
55604;BME280;41468;48.838;9.330;2023-07-29T04:22:36;97780.13;;;17.57;100.00
55604;BME280;41468;48.838;9.330;2023-07-29T04:25:03;97774.69;;;17.53;100.00
55604;BME280;41468;48.838;9.330;2023-07-29T04:27:31;97770.66;;;17.58;100.00
55604;BME280;41468;48.838;9.330;2023-07-29T04:29:58;97774.34;;;17.51;100.00
55604;BME280;41468;48.838;9.330;2023-07-29T04:32:24;97775.47;;;17.54;100.00
55604;BME280;41468;48.838;9.330;2023-07-29T04:34:52;97775.91;;;17.52;100.00
55604;BME280;41468;48.838;9.330;2023-07-29T04:37:19;97778.59;;;17.56;100.00
55604;BME280;41468;48.838;9.330;2023-07-29T04:39:46;97783.47;;;17.48;100.00
55604;BME280;41468;48.838;9.330;2023-07-29T04:42:13;97789.00;;;17.48;100.00
55604;BME280;41468;48.838;9.330;2023-07-29T04:44:40;97778.72;;;17.49;100.00
55604;BME280;41468;48.838;9.330;2023-07-29T04:47:08;97783.47;;;17.48;100.00
55604;BME280;41468;48.838;9.330;2023-07-29T04:49:35;97794.97;;;17.47;100.00
55604;BME280;41468;48.838;9.330;2023-07-29T04:52:02;97801.16;;;17.51;100.00
55604;BME280;41468;48.838;9.330;2023-07-29T05:05:04;97828.00;;;17.50;100.00
55604;BME280;41468;48.838;9.330;2023-07-29T05:07:31;97827.63;;;17.48;100.00
55604;BME280;41468;48.838;9.330;2023-07-29T05:09:57;97826.88;;;17.48;100.00
55604;BME280;41468;48.838;9.330;2023-07-29T05:12:24;97820.63;;;17.43;100.00
55604;BME280;41468;48.838;9.330;2023-07-29T05:14:51;97809.59;;;17.43;100.00
55604;BME280;41468;48.838;9.330;2023-07-29T05:17:25;97800.19;;;17.41;100.00
55604;BME280;41468;48.838;9.330;2023-07-29T05:19:52;97801.03;;;17.38;100.00
55604;BME280;41468;48.838;9.330;2023-07-29T05:22:19;97792.69;;;17.41;100.00
55604;BME280;41468;48.838;9.330;2023-07-29T05:24:45;97779.53;;;17.49;100.00
55604;BME280;41468;48.838;9.330;2023-07-29T05:27:12;97780.75;;;17.64;100.00
55604;BME280;41468;48.838;9.330;2023-07-29T05:29:39;97778.00;;;17.64;100.00
55604;BME280;41468;48.838;9.330;2023-07-29T05:32:06;97771.97;;;17.70;100.00
55604;BME280;41468;48.838;9.330;2023-07-29T05:34:33;97779.34;;;17.76;100.00
55604;BME280;41468;48.838;9.330;2023-07-29T05:37:00;97789.09;;;17.81;100.00
55604;BME280;41468;48.838;9.330;2023-07-29T05:39:26;97795.84;;;17.80;100.00
55604;BME280;41468;48.838;9.330;2023-07-29T05:41:53;97788.69;;;17.82;100.00
55604;BME280;41468;48.838;9.330;2023-07-29T05:44:20;97796.38;;;17.91;100.00
55604;BME280;41468;48.838;9.330;2023-07-29T05:46:47;97789.66;;;17.92;100.00
55604;BME280;41468;48.838;9.330;2023-07-29T05:49:14;97794.38;;;17.92;100.00
55604;BME280;41468;48.838;9.330;2023-07-29T05:51:41;97802.16;;;17.97;100.00
55604;BME280;41468;48.838;9.330;2023-07-29T05:54:07;97793.00;;;18.00;100.00
55604;BME280;41468;48.838;9.330;2023-07-29T05:56:34;97790.69;;;17.98;100.00
55604;BME280;41468;48.838;9.330;2023-07-29T05:59:01;97788.47;;;18.09;100.00
55604;BME280;41468;48.838;9.330;2023-07-29T06:01:28;97786.66;;;18.19;100.00
55604;BME280;41468;48.838;9.330;2023-07-29T06:03:55;97775.41;;;18.26;100.00
55604;BME280;41468;48.838;9.330;2023-07-29T06:06:22;97772.94;;;18.48;100.00
55604;BME280;41468;48.838;9.330;2023-07-29T06:08:50;97764.78;;;18.58;100.00
55604;BME280;41468;48.838;9.330;2023-07-29T06:11:16;97765.81;;;18.64;100.00
55604;BME280;41468;48.838;9.330;2023-07-29T06:13:43;97758.56;;;18.70;100.00
55604;BME280;41468;48.838;9.330;2023-07-29T06:16:10;97768.91;;;18.82;100.00
55604;BME280;41468;48.838;9.330;2023-07-29T06:18:37;97765.97;;;18.89;100.00
55604;BME280;41468;48.838;9.330;2023-07-29T06:21:15;97771.28;;;18.96;100.00
55604;BME280;41468;48.838;9.330;2023-07-29T06:23:43;97776.81;;;18.96;100.00
55604;BME280;41468;48.838;9.330;2023-07-29T06:26:10;97776.91;;;18.93;100.00
55604;BME280;41468;48.838;9.330;2023-07-29T06:28:37;97780.56;;;18.90;100.00
55604;BME280;41468;48.838;9.330;2023-07-29T06:31:04;97778.66;;;18.87;100.00
55604;BME280;41468;48.838;9.330;2023-07-29T06:33:31;97780.13;;;18.91;100.00
55604;BME280;41468;48.838;9.330;2023-07-29T06:35:57;97777.69;;;18.93;100.00
55604;BME280;41468;48.838;9.330;2023-07-29T06:38:24;97777.38;;;18.91;100.00
55604;BME280;41468;48.838;9.330;2023-07-29T06:40:51;97781.69;;;18.92;100.00
55604;BME280;41468;48.838;9.330;2023-07-29T06:43:19;97783.91;;;18.97;100.00
55604;BME280;41468;48.838;9.330;2023-07-29T06:45:45;97782.44;;;18.93;100.00
55604;BME280;41468;48.838;9.330;2023-07-29T06:48:12;97793.41;;;18.96;100.00
55604;BME280;41468;48.838;9.330;2023-07-29T06:50:39;97784.97;;;18.87;100.00
55604;BME280;41468;48.838;9.330;2023-07-29T06:53:06;97780.56;;;18.90;100.00
55604;BME280;41468;48.838;9.330;2023-07-29T06:55:44;97796.38;;;18.89;100.00
55604;BME280;41468;48.838;9.330;2023-07-29T06:58:11;97794.50;;;18.86;100.00
55604;BME280;41468;48.838;9.330;2023-07-29T07:00:42;97790.09;;;18.89;100.00
55604;BME280;41468;48.838;9.330;2023-07-29T07:03:09;97788.16;;;18.86;100.00
55604;BME280;41468;48.838;9.330;2023-07-29T07:05:36;97796.56;;;18.82;100.00
55604;BME280;41468;48.838;9.330;2023-07-29T07:08:03;97805.75;;;18.79;100.00
55604;BME280;41468;48.838;9.330;2023-07-29T07:10:30;97803.84;;;18.76;100.00
55604;BME280;41468;48.838;9.330;2023-07-29T07:12:56;97809.72;;;18.78;100.00
55604;BME280;41468;48.838;9.330;2023-07-29T07:15:23;97813.75;;;18.73;100.00
55604;BME280;41468;48.838;9.330;2023-07-29T07:17:51;97832.41;;;18.69;100.00
55604;BME280;41468;48.838;9.330;2023-07-29T07:20:18;97829.91;;;18.59;100.00
55604;BME280;41468;48.838;9.330;2023-07-29T07:22:45;97835.78;;;18.61;100.00
55604;BME280;41468;48.838;9.330;2023-07-29T07:25:11;97840.19;;;18.58;100.00
55604;BME280;41468;48.838;9.330;2023-07-29T07:27:38;97848.06;;;18.60;100.00
55604;BME280;41468;48.838;9.330;2023-07-29T07:30:05;97838.47;;;18.64;100.00
55604;BME280;41468;48.838;9.330;2023-07-29T07:32:32;97831.38;;;18.63;100.00
55604;BME280;41468;48.838;9.330;2023-07-29T07:34:59;97824.22;;;18.66;100.00
55604;BME280;41468;48.838;9.330;2023-07-29T07:37:26;97832.88;;;18.68;100.00
55604;BME280;41468;48.838;9.330;2023-07-29T07:39:53;97825.25;;;18.72;100.00
55604;BME280;41468;48.838;9.330;2023-07-29T07:42:19;97831.06;;;18.77;100.00
55604;BME280;41468;48.838;9.330;2023-07-29T07:44:53;97829.34;;;18.84;100.00
55604;BME280;41468;48.838;9.330;2023-07-29T07:47:20;97838.41;;;18.84;100.00
55604;BME280;41468;48.838;9.330;2023-07-29T07:49:46;97837.00;;;18.92;100.00
55604;BME280;41468;48.838;9.330;2023-07-29T07:52:15;97837.69;;;18.96;100.00
55604;BME280;41468;48.838;9.330;2023-07-29T07:54:42;97826.53;;;19.00;100.00
55604;BME280;41468;48.838;9.330;2023-07-29T07:57:09;97829.53;;;19.06;100.00
55604;BME280;41468;48.838;9.330;2023-07-29T07:59:36;97833.72;;;18.97;100.00
55604;BME280;41468;48.838;9.330;2023-07-29T08:02:03;97823.00;;;19.00;100.00
55604;BME280;41468;48.838;9.330;2023-07-29T08:04:29;97827.97;;;19.05;100.00
55604;BME280;41468;48.838;9.330;2023-07-29T08:06:56;97830.72;;;19.05;100.00
55604;BME280;41468;48.838;9.330;2023-07-29T08:09:23;97827.66;;;19.03;100.00
55604;BME280;41468;48.838;9.330;2023-07-29T08:11:50;97813.28;;;19.08;100.00
55604;BME280;41468;48.838;9.330;2023-07-29T08:14:16;97814.78;;;19.25;100.00
55604;BME280;41468;48.838;9.330;2023-07-29T08:16:43;97835.09;;;19.35;100.00
55604;BME280;41468;48.838;9.330;2023-07-29T08:19:10;97831.28;;;19.29;100.00
55604;BME280;41468;48.838;9.330;2023-07-29T08:21:37;97850.91;;;19.34;100.00
55604;BME280;41468;48.838;9.330;2023-07-29T08:24:04;97849.94;;;19.41;100.00
55604;BME280;41468;48.838;9.330;2023-07-29T08:26:31;97849.19;;;19.53;100.00
55604;BME280;41468;48.838;9.330;2023-07-29T08:28:57;97844.53;;;19.92;100.00
55604;BME280;41468;48.838;9.330;2023-07-29T08:31:24;97861.19;;;20.05;100.00
55604;BME280;41468;48.838;9.330;2023-07-29T08:34:02;97849.75;;;20.03;100.00
55604;BME280;41468;48.838;9.330;2023-07-29T08:36:29;97849.63;;;20.06;100.00
55604;BME280;41468;48.838;9.330;2023-07-29T08:38:56;97855.84;;;20.11;100.00
55604;BME280;41468;48.838;9.330;2023-07-29T08:41:29;97855.66;;;20.18;100.00
55604;BME280;41468;48.838;9.330;2023-07-29T08:44:11;97848.66;;;20.13;100.00
55604;BME280;41468;48.838;9.330;2023-07-29T08:46:39;97844.44;;;20.21;100.00
55604;BME280;41468;48.838;9.330;2023-07-29T08:49:07;97844.66;;;20.40;100.00
55604;BME280;41468;48.838;9.330;2023-07-29T08:51:35;97845.31;;;20.69;100.00
55604;BME280;41468;48.838;9.330;2023-07-29T08:54:03;97843.38;;;20.79;100.00
55604;BME280;41468;48.838;9.330;2023-07-29T08:56:30;97849.69;;;20.92;100.00
55604;BME280;41468;48.838;9.330;2023-07-29T08:58:57;97846.53;;;21.03;100.00
55604;BME280;41468;48.838;9.330;2023-07-29T09:01:38;97848.28;;;21.23;100.00
55604;BME280;41468;48.838;9.330;2023-07-29T09:04:05;97850.31;;;21.44;100.00
55604;BME280;41468;48.838;9.330;2023-07-29T09:06:32;97858.31;;;21.42;100.00
55604;BME280;41468;48.838;9.330;2023-07-29T09:09:01;97850.38;;;21.53;100.00
55604;BME280;41468;48.838;9.330;2023-07-29T09:11:28;97846.97;;;21.80;100.00
55604;BME280;41468;48.838;9.330;2023-07-29T09:13:55;97843.50;;;22.20;100.00
55604;BME280;41468;48.838;9.330;2023-07-29T09:16:22;97843.78;;;22.63;100.00
55604;BME280;41468;48.838;9.330;2023-07-29T09:18:50;97838.59;;;22.92;99.38
55604;BME280;41468;48.838;9.330;2023-07-29T09:21:22;97839.69;;;22.95;99.19
55604;BME280;41468;48.838;9.330;2023-07-29T09:23:50;97828.44;;;23.08;94.58
55604;BME280;41468;48.838;9.330;2023-07-29T09:26:26;97830.09;;;23.24;99.32
55604;BME280;41468;48.838;9.330;2023-07-29T09:28:55;97832.56;;;23.49;93.08
55604;BME280;41468;48.838;9.330;2023-07-29T09:31:24;97833.00;;;23.85;98.27
55604;BME280;41468;48.838;9.330;2023-07-29T09:33:58;97833.25;;;23.96;92.97
55604;BME280;41468;48.838;9.330;2023-07-29T09:36:26;97836.81;;;24.06;91.94
55604;BME280;41468;48.838;9.330;2023-07-29T09:38:54;97838.44;;;24.21;92.20
55604;BME280;41468;48.838;9.330;2023-07-29T09:41:25;97827.94;;;24.07;93.24
55604;BME280;41468;48.838;9.330;2023-07-29T09:43:57;97827.66;;;24.05;92.87
55604;BME280;41468;48.838;9.330;2023-07-29T09:46:35;97826.84;;;24.14;88.27
55604;BME280;41468;48.838;9.330;2023-07-29T09:49:05;97818.22;;;24.45;87.46
55604;BME280;41468;48.838;9.330;2023-07-29T09:51:37;97829.72;;;24.29;92.41
55604;BME280;41468;48.838;9.330;2023-07-29T09:54:05;97830.72;;;24.16;92.94
55604;BME280;41468;48.838;9.330;2023-07-29T09:56:32;97815.19;;;23.82;88.39
55604;BME280;41468;48.838;9.330;2023-07-29T09:59:00;97806.69;;;23.58;86.85
55604;BME280;41468;48.838;9.330;2023-07-29T10:01:31;97793.38;;;23.53;89.56
55604;BME280;41468;48.838;9.330;2023-07-29T10:03:59;97801.41;;;23.78;91.44
55604;BME280;41468;48.838;9.330;2023-07-29T10:06:28;97793.38;;;23.80;88.76
55604;BME280;41468;48.838;9.330;2023-07-29T10:08:56;97796.63;;;24.12;88.19
55604;BME280;41468;48.838;9.330;2023-07-29T10:11:23;97793.50;;;24.53;89.40
55604;BME280;41468;48.838;9.330;2023-07-29T10:13:51;97800.28;;;24.61;80.80
55604;BME280;41468;48.838;9.330;2023-07-29T10:16:34;97805.84;;;24.85;80.08
55604;BME280;41468;48.838;9.330;2023-07-29T10:19:04;97807.53;;;24.91;78.31
55604;BME280;41468;48.838;9.330;2023-07-29T10:21:31;97814.22;;;24.61;81.24
55604;BME280;41468;48.838;9.330;2023-07-29T10:24:01;97824.44;;;24.31;82.92
55604;BME280;41468;48.838;9.330;2023-07-29T10:26:31;97846.34;;;23.62;85.20
55604;BME280;41468;48.838;9.330;2023-07-29T10:29:03;97832.22;;;22.83;92.39
55604;BME280;41468;48.838;9.330;2023-07-29T10:31:32;97832.34;;;22.61;92.02
55604;BME280;41468;48.838;9.330;2023-07-29T10:33:59;97837.22;;;22.07;97.81
55604;BME280;41468;48.838;9.330;2023-07-29T10:36:27;97833.63;;;21.66;100.00
55604;BME280;41468;48.838;9.330;2023-07-29T10:38:55;97832.47;;;21.54;100.00
55604;BME280;41468;48.838;9.330;2023-07-29T10:41:22;97833.66;;;21.44;100.00
55604;BME280;41468;48.838;9.330;2023-07-29T10:43:49;97835.09;;;21.36;100.00
55604;BME280;41468;48.838;9.330;2023-07-29T10:46:19;97835.97;;;21.33;100.00
55604;BME280;41468;48.838;9.330;2023-07-29T10:51:29;97848.41;;;21.41;100.00
55604;BME280;41468;48.838;9.330;2023-07-29T10:54:00;97837.44;;;21.59;100.00
55604;BME280;41468;48.838;9.330;2023-07-29T10:56:29;97826.56;;;22.05;100.00
55604;BME280;41468;48.838;9.330;2023-07-29T10:58:58;97827.47;;;22.34;100.00
55604;BME280;41468;48.838;9.330;2023-07-29T11:01:27;97832.97;;;22.65;98.56
55604;BME280;41468;48.838;9.330;2023-07-29T11:09:41;97817.22;;;23.63;88.64
55604;BME280;41468;48.838;9.330;2023-07-29T11:12:43;97827.59;;;23.81;84.74
55604;BME280;41468;48.838;9.330;2023-07-29T11:15:20;97827.75;;;23.68;86.01
55604;BME280;41468;48.838;9.330;2023-07-29T11:17:49;97831.47;;;23.74;86.12
55604;BME280;41468;48.838;9.330;2023-07-29T11:20:18;97834.75;;;24.15;85.27
55604;BME280;41468;48.838;9.330;2023-07-29T11:22:45;97836.28;;;24.16;81.54
55604;BME280;41468;48.838;9.330;2023-07-29T11:25:14;97833.50;;;24.16;80.76
55604;BME280;41468;48.838;9.330;2023-07-29T11:27:41;97822.28;;;24.25;82.25
55604;BME280;41468;48.838;9.330;2023-07-29T11:30:10;97832.78;;;24.40;82.37
55604;BME280;41468;48.838;9.330;2023-07-29T11:32:39;97828.00;;;24.31;80.65
55604;BME280;41468;48.838;9.330;2023-07-29T11:35:10;97837.63;;;24.63;76.97
55604;BME280;41468;48.838;9.330;2023-07-29T11:37:39;97832.06;;;24.30;77.73
55604;BME280;41468;48.838;9.330;2023-07-29T11:40:07;97835.34;;;24.19;77.65
55604;BME280;41468;48.838;9.330;2023-07-29T11:42:35;97823.72;;;23.78;78.56
55604;BME280;41468;48.838;9.330;2023-07-29T11:45:07;97822.03;;;23.63;79.63
55604;BME280;41468;48.838;9.330;2023-07-29T11:47:35;97813.81;;;23.68;80.74
55604;BME280;41468;48.838;9.330;2023-07-29T11:50:06;97803.72;;;24.22;81.06
55604;BME280;41468;48.838;9.330;2023-07-29T11:52:36;97813.41;;;24.36;80.69
55604;BME280;41468;48.838;9.330;2023-07-29T11:55:04;97803.69;;;24.32;80.10
55604;BME280;41468;48.838;9.330;2023-07-29T11:57:35;97812.94;;;24.38;79.75
55604;BME280;41468;48.838;9.330;2023-07-29T12:00:03;97807.19;;;24.41;77.66
55604;BME280;41468;48.838;9.330;2023-07-29T12:02:43;97813.53;;;24.51;80.12
55604;BME280;41468;48.838;9.330;2023-07-29T12:05:13;97808.78;;;24.66;75.86
55604;BME280;41468;48.838;9.330;2023-07-29T12:07:42;97811.56;;;24.90;74.95
55604;BME280;41468;48.838;9.330;2023-07-29T12:10:20;97797.88;;;25.17;74.83
55604;BME280;41468;48.838;9.330;2023-07-29T12:12:49;97802.69;;;25.16;73.25
55604;BME280;41468;48.838;9.330;2023-07-29T12:15:26;97809.00;;;25.26;73.04
55604;BME280;41468;48.838;9.330;2023-07-29T12:17:57;97795.41;;;25.33;71.90
55604;BME280;41468;48.838;9.330;2023-07-29T12:20:25;97796.00;;;25.52;71.26
55604;BME280;41468;48.838;9.330;2023-07-29T12:22:56;97794.84;;;25.74;71.50
55604;BME280;41468;48.838;9.330;2023-07-29T12:25:24;97790.69;;;25.84;70.97
55604;BME280;41468;48.838;9.330;2023-07-29T12:27:52;97782.00;;;25.97;68.02
55604;BME280;41468;48.838;9.330;2023-07-29T12:30:22;97789.56;;;26.26;69.83
55604;BME280;41468;48.838;9.330;2023-07-29T12:32:49;97787.84;;;26.29;69.29
55604;BME280;41468;48.838;9.330;2023-07-29T12:35:16;97785.41;;;26.36;67.20
55604;BME280;41468;48.838;9.330;2023-07-29T12:37:43;97784.72;;;26.41;65.96
55604;BME280;41468;48.838;9.330;2023-07-29T12:40:22;97785.09;;;26.34;67.96
55604;BME280;41468;48.838;9.330;2023-07-29T12:42:50;97778.91;;;26.10;63.71
55604;BME280;41468;48.838;9.330;2023-07-29T12:45:18;97772.13;;;26.16;63.88
55604;BME280;41468;48.838;9.330;2023-07-29T12:47:45;97770.63;;;26.36;65.13
55604;BME280;41468;48.838;9.330;2023-07-29T12:50:12;97774.28;;;26.42;65.61
55604;BME280;41468;48.838;9.330;2023-07-29T12:52:39;97766.88;;;26.59;64.69
55604;BME280;41468;48.838;9.330;2023-07-29T12:55:06;97779.38;;;26.79;61.22
55604;BME280;41468;48.838;9.330;2023-07-29T12:57:35;97769.47;;;26.83;55.25
55604;BME280;41468;48.838;9.330;2023-07-29T13:00:03;97764.78;;;26.95;56.12
55604;BME280;41468;48.838;9.330;2023-07-29T13:02:31;97766.25;;;27.11;53.61
55604;BME280;41468;48.838;9.330;2023-07-29T13:04:58;97776.53;;;26.99;54.74
55604;BME280;41468;48.838;9.330;2023-07-29T13:07:25;97765.84;;;26.77;54.07
55604;BME280;41468;48.838;9.330;2023-07-29T13:09:52;97761.44;;;26.71;53.31
55604;BME280;41468;48.838;9.330;2023-07-29T13:12:18;97768.44;;;26.60;54.49
55604;BME280;41468;48.838;9.330;2023-07-29T13:14:45;97752.66;;;26.42;54.52
55604;BME280;41468;48.838;9.330;2023-07-29T13:17:12;97751.13;;;26.41;54.61
55604;BME280;41468;48.838;9.330;2023-07-29T13:19:39;97755.44;;;26.42;54.73
55604;BME280;41468;48.838;9.330;2023-07-29T13:22:05;97749.91;;;26.63;52.79
55604;BME280;41468;48.838;9.330;2023-07-29T13:24:32;97757.09;;;26.70;54.41
55604;BME280;41468;48.838;9.330;2023-07-29T13:26:59;97755.28;;;26.87;54.81
55604;BME280;41468;48.838;9.330;2023-07-29T13:29:26;97760.25;;;26.77;54.36
55604;BME280;41468;48.838;9.330;2023-07-29T13:31:53;97763.88;;;26.83;54.33